createdAt,value
2022-12-25T00:01:33.942Z,-0.40
2022-12-25T00:04:01.201Z,-0.19
2022-12-25T00:06:28.728Z,-0.08
2022-12-25T00:08:55.849Z,-0.31
2022-12-25T00:11:23.542Z,-0.29
2022-12-25T00:13:50.758Z,-0.30
2022-12-25T00:16:24.461Z,-0.21
2022-12-25T00:18:52.403Z,-0.29
2022-12-25T00:21:21.175Z,-0.20
2022-12-25T00:23:48.639Z,-0.36
2022-12-25T00:26:18.130Z,-0.09
2022-12-25T00:28:45.417Z,-0.23
2022-12-25T00:31:15.791Z,-0.24
2022-12-25T00:33:44.608Z,-0.13
2022-12-25T00:36:13.310Z,-0.10
2022-12-25T00:38:41.207Z,0.09
2022-12-25T00:41:14.574Z,-0.09
2022-12-25T00:43:42.331Z,-0.13
2022-12-25T00:46:11.961Z,-0.30
2022-12-25T00:48:39.879Z,-0.19
2022-12-25T00:51:11.213Z,-0.11
2022-12-25T00:53:38.793Z,-0.04
2022-12-25T00:56:07.997Z,-0.10
2022-12-25T00:58:36.249Z,-0.01
2022-12-25T01:01:04.292Z,-0.04
2022-12-25T01:03:31.573Z,0.09
2022-12-25T01:06:01.713Z,0.17
2022-12-25T01:08:33.895Z,0.28
2022-12-25T01:11:04.697Z,0.01
2022-12-25T01:13:34.662Z,0.11
2022-12-25T01:16:09.954Z,0.15
2022-12-25T01:18:38.071Z,0.34
2022-12-25T01:21:07.267Z,0.17
2022-12-25T01:23:34.775Z,0.48
2022-12-25T01:26:10.925Z,0.17
2022-12-25T01:28:39.277Z,0.36
2022-12-25T01:31:10.869Z,0.34
2022-12-25T01:33:42.449Z,0.26
2022-12-25T01:36:22.214Z,0.42
2022-12-25T01:38:50.770Z,0.28
2022-12-25T01:41:21.105Z,0.33
2022-12-25T01:44:03.215Z,0.36
2022-12-25T01:46:31.547Z,0.50
2022-12-25T01:49:03.596Z,0.61
2022-12-25T01:51:42.573Z,0.40
2022-12-25T01:54:16.947Z,0.50
2022-12-25T01:56:47.688Z,0.46
2022-12-25T01:59:17.722Z,0.54
2022-12-25T02:01:46.072Z,0.51
2022-12-25T02:04:39.893Z,0.35
2022-12-25T02:07:10.556Z,0.26
2022-12-25T02:09:37.999Z,0.42
2022-12-25T02:12:08.877Z,0.57
2022-12-25T02:14:37.672Z,0.48
2022-12-25T02:17:13.963Z,0.57
2022-12-25T02:20:11.843Z,0.55
2022-12-25T02:22:56.684Z,0.40
2022-12-25T02:25:33.055Z,0.40
2022-12-25T02:28:28.498Z,0.42
2022-12-25T02:31:23.651Z,0.39
2022-12-25T02:34:14.038Z,0.30
2022-12-25T02:36:50.234Z,0.30
2022-12-25T02:39:50.499Z,0.39
2022-12-25T02:42:47.650Z,0.35
2022-12-25T02:45:40.127Z,0.10
2022-12-25T02:48:29.009Z,0.41
2022-12-25T02:51:17.608Z,0.41
2022-12-25T02:54:06.499Z,0.57
2022-12-25T02:56:56.409Z,0.55
2022-12-25T02:59:43.927Z,0.31
2022-12-25T03:02:31.756Z,0.32
2022-12-25T03:05:23.764Z,0.50
2022-12-25T03:07:52.055Z,0.36
2022-12-25T03:10:40.083Z,0.45
2022-12-25T03:13:22.113Z,0.50
2022-12-25T03:16:08.738Z,0.46
2022-12-25T03:18:36.317Z,0.53
2022-12-25T03:21:22.128Z,0.47
2022-12-25T03:24:03.838Z,0.49
2022-12-25T03:26:49.573Z,0.49
2022-12-25T03:29:36.901Z,0.45
2022-12-25T03:32:27.587Z,0.57
2022-12-25T03:35:44.721Z,0.57
2022-12-25T03:38:33.059Z,0.57
2022-12-25T03:41:24.778Z,0.48
2022-12-25T03:44:13.648Z,0.36
2022-12-25T03:47:11.764Z,0.24
2022-12-25T03:50:25.457Z,0.43
2022-12-25T03:53:14.985Z,0.51
2022-12-25T03:56:01.689Z,0.68
2022-12-25T03:58:47.647Z,0.70
2022-12-25T04:01:33.503Z,0.40
2022-12-25T04:04:19.812Z,0.12
2022-12-25T04:07:05.585Z,0.31
2022-12-25T04:09:51.409Z,0.56
2022-12-25T04:12:54.001Z,0.26
2022-12-25T04:15:39.878Z,0.37
2022-12-25T04:18:25.529Z,0.34
2022-12-25T04:21:11.378Z,0.34
2022-12-25T04:23:57.247Z,0.58
2022-12-25T04:26:43.145Z,0.61
2022-12-25T04:29:29.068Z,0.31
2022-12-25T04:32:14.986Z,0.44
2022-12-25T04:35:00.855Z,0.25
2022-12-25T04:37:28.265Z,0.36
2022-12-25T04:39:55.275Z,0.41
2022-12-25T04:42:22.725Z,0.48
2022-12-25T04:44:50.172Z,0.61
2022-12-25T04:47:17.664Z,0.48
2022-12-25T04:49:44.728Z,0.63
2022-12-25T04:52:12.057Z,0.32
2022-12-25T04:54:39.257Z,0.32
2022-12-25T04:57:06.862Z,0.48
2022-12-25T04:59:33.871Z,0.51
2022-12-25T05:02:01.359Z,0.54
2022-12-25T05:04:28.462Z,0.67
2022-12-25T05:06:55.845Z,0.35
2022-12-25T05:09:22.877Z,0.28
2022-12-25T05:11:50.480Z,0.44
2022-12-25T05:14:17.681Z,0.52
2022-12-25T05:16:45.102Z,0.50
2022-12-25T05:19:12.144Z,0.47
2022-12-25T05:21:39.462Z,0.53
2022-12-25T05:24:06.842Z,0.49
2022-12-25T05:26:34.305Z,0.42
2022-12-25T05:29:01.423Z,0.56
2022-12-25T05:31:28.762Z,0.48
2022-12-25T05:33:55.855Z,0.59
2022-12-25T05:36:23.387Z,0.48
2022-12-25T05:38:50.529Z,0.66
2022-12-25T05:41:17.932Z,0.60
2022-12-25T05:43:44.961Z,0.48
2022-12-25T05:46:13.495Z,0.63
2022-12-25T05:48:40.605Z,0.47
2022-12-25T05:51:10.799Z,0.56
2022-12-25T05:53:38.749Z,0.46
2022-12-25T05:56:07.542Z,0.45
2022-12-25T05:58:38.170Z,0.28
2022-12-25T06:01:11.994Z,0.51
2022-12-25T06:03:39.234Z,0.58
2022-12-25T06:06:07.369Z,0.38
2022-12-25T06:08:34.912Z,0.38
2022-12-25T06:11:04.459Z,0.60
2022-12-25T06:13:33.177Z,0.43
2022-12-25T06:16:07.639Z,0.21
2022-12-25T06:18:36.525Z,0.37
2022-12-25T06:21:11.947Z,0.22
2022-12-25T06:23:39.508Z,0.25
2022-12-25T06:26:09.436Z,0.30
2022-12-25T06:28:37.005Z,0.23
2022-12-25T06:31:15.881Z,0.22
2022-12-25T06:33:43.520Z,0.32
2022-12-25T06:36:17.380Z,0.54
2022-12-25T06:38:44.896Z,0.22
2022-12-25T06:41:18.069Z,0.25
2022-12-25T06:43:52.614Z,0.29
2022-12-25T06:46:21.027Z,0.08
2022-12-25T06:48:49.529Z,0.14
2022-12-25T06:51:19.617Z,0.29
2022-12-25T06:53:51.322Z,0.24
2022-12-25T06:56:21.868Z,0.40
2022-12-25T06:58:53.142Z,0.34
2022-12-25T07:01:24.263Z,0.21
2022-12-25T07:03:54.693Z,0.31
2022-12-25T07:06:22.393Z,0.53
2022-12-25T07:08:49.541Z,0.64
2022-12-25T07:11:17.094Z,0.31
2022-12-25T07:13:44.242Z,0.35
2022-12-25T07:16:12.403Z,0.30
2022-12-25T07:18:40.114Z,0.19
2022-12-25T07:21:19.032Z,0.24
2022-12-25T07:23:47.763Z,0.17
2022-12-25T07:26:17.243Z,0.37
2022-12-25T07:28:44.751Z,0.39
2022-12-25T07:31:14.657Z,0.43
2022-12-25T07:33:41.924Z,0.41
2022-12-25T07:36:13.018Z,0.45
2022-12-25T07:38:43.160Z,0.37
2022-12-25T07:41:14.679Z,0.32
2022-12-25T07:43:42.258Z,0.50
2022-12-25T07:46:10.753Z,0.56
2022-12-25T07:48:39.067Z,0.47
2022-12-25T07:51:10.760Z,0.73
2022-12-25T07:53:38.507Z,0.73
2022-12-25T07:56:10.036Z,0.61
2022-12-25T07:58:37.283Z,0.87
2022-12-25T08:01:07.757Z,0.95
2022-12-25T08:03:35.677Z,0.76
2022-12-25T08:06:06.441Z,0.81
2022-12-25T08:08:33.780Z,0.82
2022-12-25T08:11:01.516Z,1.06
2022-12-25T08:13:32.342Z,1.01
2022-12-25T08:16:01.551Z,0.95
2022-12-25T08:18:30.587Z,1.14
2022-12-25T08:21:06.706Z,1.16
2022-12-25T08:23:35.936Z,1.26
2022-12-25T08:26:05.916Z,1.06
2022-12-25T08:28:33.917Z,1.19
2022-12-25T08:31:28.412Z,1.15
2022-12-25T08:33:58.534Z,1.17
2022-12-25T08:36:26.003Z,1.25
2022-12-25T08:38:55.657Z,1.24
2022-12-25T08:41:26.819Z,1.35
2022-12-25T08:43:54.645Z,1.34
2022-12-25T08:46:22.121Z,1.29
2022-12-25T08:48:49.834Z,1.32
2022-12-25T08:51:20.068Z,1.37
2022-12-25T08:53:47.913Z,1.29
2022-12-25T08:56:16.089Z,1.42
2022-12-25T08:58:43.469Z,1.34
2022-12-25T09:01:12.179Z,1.44
2022-12-25T09:03:39.848Z,1.16
2022-12-25T09:06:16.629Z,1.03
2022-12-25T09:08:49.091Z,1.03
2022-12-25T09:11:19.541Z,1.10
2022-12-25T09:13:47.837Z,1.15
2022-12-25T09:16:19.286Z,0.95
2022-12-25T09:18:46.696Z,0.92
2022-12-25T09:21:16.321Z,1.05
2022-12-25T09:23:43.644Z,1.54
2022-12-25T09:26:14.536Z,1.36
2022-12-25T09:28:50.153Z,1.59
2022-12-25T09:31:19.041Z,1.61
2022-12-25T09:33:46.190Z,1.65
2022-12-25T09:36:13.579Z,1.42
2022-12-25T09:38:40.715Z,1.65
2022-12-25T09:41:16.965Z,1.55
2022-12-25T09:43:51.836Z,1.54
2022-12-25T09:46:25.195Z,1.46
2022-12-25T09:49:15.255Z,1.46
2022-12-25T09:51:45.837Z,1.41
2022-12-25T09:54:22.785Z,1.50
2022-12-25T09:56:50.335Z,1.52
2022-12-25T09:59:26.311Z,1.14
2022-12-25T10:02:22.348Z,1.25
2022-12-25T10:04:58.549Z,0.92
2022-12-25T10:07:32.186Z,1.15
2022-12-25T10:10:02.391Z,1.35
2022-12-25T10:12:30.254Z,1.21
2022-12-25T10:15:25.216Z,1.43
2022-12-25T10:18:14.379Z,1.20
2022-12-25T10:20:52.305Z,1.39
2022-12-25T10:23:26.251Z,0.99
2022-12-25T10:25:54.109Z,1.20
2022-12-25T10:28:35.062Z,1.30
2022-12-25T10:31:17.619Z,1.65
2022-12-25T10:33:45.646Z,1.70
2022-12-25T10:36:14.130Z,1.76
2022-12-25T10:38:41.620Z,1.77
2022-12-25T10:41:26.591Z,1.78
2022-12-25T10:43:56.959Z,1.83
2022-12-25T10:46:27.605Z,1.92
2022-12-25T10:49:03.273Z,1.99
2022-12-25T10:51:32.132Z,1.64
2022-12-25T10:54:01.591Z,1.54
2022-12-25T10:56:28.899Z,1.87
2022-12-25T10:59:11.476Z,1.74
2022-12-25T11:01:38.768Z,1.60
2022-12-25T11:04:06.456Z,1.75
2022-12-25T11:06:34.602Z,1.79
2022-12-25T11:09:03.198Z,1.67
2022-12-25T11:11:31.221Z,1.67
2022-12-25T11:14:02.464Z,1.81
2022-12-25T11:16:38.133Z,1.89
2022-12-25T11:19:28.341Z,1.78
2022-12-25T11:21:57.452Z,1.81
2022-12-25T11:24:32.961Z,1.97
2022-12-25T11:27:06.630Z,1.88
2022-12-25T11:29:46.945Z,1.84
2022-12-25T11:32:22.837Z,1.84
2022-12-25T11:34:52.394Z,2.00
2022-12-25T11:37:50.451Z,2.05
2022-12-25T11:40:23.458Z,1.72
2022-12-25T11:43:04.081Z,1.74
2022-12-25T11:45:41.571Z,1.77
2022-12-25T11:48:19.835Z,1.93
2022-12-25T11:50:58.251Z,2.00
2022-12-25T11:53:34.943Z,2.09
2022-12-25T11:56:11.860Z,1.92
2022-12-25T11:58:44.012Z,1.91
2022-12-25T12:01:36.132Z,2.11
2022-12-25T12:04:13.824Z,2.04
2022-12-25T12:06:50.164Z,2.07
2022-12-25T12:09:40.757Z,2.07
2022-12-25T12:12:33.746Z,2.08
2022-12-25T12:15:42.610Z,1.86
2022-12-25T12:18:21.658Z,2.16
2022-12-25T12:20:59.380Z,2.00
2022-12-25T12:23:28.867Z,2.09
2022-12-25T12:25:56.839Z,1.89
2022-12-25T12:28:31.873Z,1.93
2022-12-25T12:31:10.451Z,1.91
2022-12-25T12:33:53.911Z,1.95
2022-12-25T12:36:36.220Z,1.94
2022-12-25T12:39:06.732Z,2.05
2022-12-25T12:41:49.242Z,1.94
2022-12-25T12:44:23.470Z,2.21
2022-12-25T12:46:56.329Z,2.17
2022-12-25T12:49:29.139Z,2.15
2022-12-25T12:52:25.489Z,2.10
2022-12-25T12:54:59.987Z,2.05
2022-12-25T12:57:39.584Z,2.00
2022-12-25T13:00:20.960Z,1.89
2022-12-25T13:03:12.865Z,1.93
2022-12-25T13:05:43.500Z,1.78
2022-12-25T13:08:28.421Z,1.75
2022-12-25T13:11:19.406Z,1.81
2022-12-25T13:13:49.940Z,1.17
2022-12-25T13:16:32.069Z,1.40
2022-12-25T13:19:04.508Z,1.84
2022-12-25T13:21:33.445Z,1.94
2022-12-25T13:24:10.602Z,1.98
2022-12-25T13:26:39.603Z,1.62
2022-12-25T13:29:11.445Z,1.49
2022-12-25T13:31:41.090Z,1.20
2022-12-25T13:34:40.625Z,1.29
2022-12-25T13:37:09.824Z,1.27
2022-12-25T13:39:46.502Z,1.04
2022-12-25T13:42:17.764Z,1.36
2022-12-25T13:44:49.902Z,1.82
2022-12-25T13:47:43.243Z,1.91
2022-12-25T13:50:36.571Z,1.85
2022-12-25T13:53:16.125Z,1.90
2022-12-25T13:55:47.663Z,1.79
2022-12-25T13:58:25.244Z,1.99
2022-12-25T14:00:55.087Z,2.02
2022-12-25T14:03:30.654Z,1.79
2022-12-25T14:06:00.201Z,1.97
2022-12-25T14:08:29.166Z,1.48
2022-12-25T14:10:58.373Z,1.12
2022-12-25T14:13:28.796Z,1.91
2022-12-25T14:15:57.919Z,1.80
2022-12-25T14:18:25.890Z,1.75
2022-12-25T14:20:59.197Z,1.91
2022-12-25T14:23:28.532Z,1.21
2022-12-25T14:25:55.930Z,1.00
2022-12-25T14:28:32.948Z,0.91
2022-12-25T14:31:02.493Z,0.92
2022-12-25T14:33:34.712Z,1.01
2022-12-25T14:36:02.769Z,1.07
2022-12-25T14:38:34.941Z,1.23
2022-12-25T14:41:37.002Z,1.13
2022-12-25T14:44:26.132Z,1.10
2022-12-25T14:47:13.954Z,1.18
2022-12-25T14:49:42.355Z,1.05
2022-12-25T14:52:21.378Z,1.05
2022-12-25T14:54:56.623Z,0.95
2022-12-25T14:57:30.063Z,0.96
2022-12-25T15:00:00.556Z,1.53
2022-12-25T15:02:37.478Z,1.59
2022-12-25T15:05:05.721Z,1.65
2022-12-25T15:07:33.216Z,1.05
2022-12-25T15:10:36.591Z,1.55
2022-12-25T15:12:48.288Z,1.75
2022-12-25T15:15:16.115Z,1.57
2022-12-25T15:17:43.665Z,1.82
2022-12-25T15:20:14.726Z,1.72
2022-12-25T15:23:10.000Z,1.97
2022-12-25T15:25:30.812Z,1.69
2022-12-25T15:27:59.217Z,1.69
2022-12-25T15:30:26.837Z,1.71
2022-12-25T15:32:54.853Z,1.21
2022-12-25T15:35:22.697Z,1.08
2022-12-25T15:37:50.127Z,1.16
2022-12-25T15:40:19.675Z,1.09
2022-12-25T15:42:50.147Z,1.07
2022-12-25T15:45:22.599Z,1.35
2022-12-25T15:47:50.144Z,1.33
2022-12-25T15:50:19.083Z,1.29
2022-12-25T15:52:47.596Z,1.30
2022-12-25T15:55:15.651Z,1.85
2022-12-25T15:57:44.901Z,1.81
2022-12-25T16:00:18.013Z,1.83
2022-12-25T16:02:46.058Z,1.69
2022-12-25T16:05:14.310Z,1.61
2022-12-25T16:07:41.634Z,1.98
2022-12-25T16:10:15.844Z,1.90
2022-12-25T16:12:43.964Z,1.07
2022-12-25T16:15:13.498Z,1.72
2022-12-25T16:17:41.321Z,1.88
2022-12-25T16:20:09.879Z,1.91
2022-12-25T16:22:40.156Z,1.60
2022-12-25T16:25:14.052Z,1.04
2022-12-25T16:27:41.482Z,1.23
2022-12-25T16:30:11.138Z,1.81
2022-12-25T16:32:38.464Z,1.75
2022-12-25T16:35:06.303Z,1.36
2022-12-25T16:37:33.988Z,1.26
2022-12-25T16:40:02.184Z,1.25
2022-12-25T16:42:29.942Z,1.23
2022-12-25T16:44:57.757Z,1.36
2022-12-25T16:47:25.009Z,1.35
2022-12-25T16:49:52.740Z,1.42
2022-12-25T16:52:20.528Z,1.20
2022-12-25T16:54:49.004Z,1.40
2022-12-25T16:57:16.575Z,1.24
2022-12-25T16:59:44.537Z,1.30
2022-12-25T17:02:18.426Z,1.22
2022-12-25T17:04:47.816Z,1.31
2022-12-25T17:07:17.511Z,1.25
2022-12-25T17:09:49.761Z,1.23
2022-12-25T17:12:17.727Z,1.25
2022-12-25T17:14:45.646Z,1.19
2022-12-25T17:17:13.121Z,1.30
2022-12-25T17:19:41.743Z,1.25
2022-12-25T17:22:09.191Z,1.71
2022-12-25T17:24:37.752Z,1.53
2022-12-25T17:27:08.703Z,1.66
2022-12-25T17:29:39.875Z,1.58
2022-12-25T17:32:08.632Z,1.67
2022-12-25T17:34:37.611Z,1.64
2022-12-25T17:37:05.900Z,1.76
2022-12-25T17:39:33.777Z,1.65
2022-12-25T17:42:01.640Z,1.54
2022-12-25T17:44:29.997Z,1.66
2022-12-25T17:46:58.124Z,1.69
2022-12-25T17:49:26.626Z,1.39
2022-12-25T17:51:54.877Z,1.58
2022-12-25T17:54:23.285Z,1.27
2022-12-25T17:56:51.108Z,1.72
2022-12-25T17:59:20.559Z,1.45
2022-12-25T18:01:49.390Z,1.71
2022-12-25T18:04:18.567Z,1.78
2022-12-25T18:06:47.294Z,1.41
2022-12-25T18:09:16.274Z,1.53
2022-12-25T18:11:44.419Z,1.67
2022-12-25T18:14:15.402Z,1.63
2022-12-25T18:16:45.124Z,1.49
2022-12-25T18:19:14.570Z,1.69
2022-12-25T18:21:41.881Z,1.61
2022-12-25T18:24:10.144Z,1.60
2022-12-25T18:26:37.879Z,1.66
2022-12-25T18:29:07.057Z,1.61
2022-12-25T18:31:34.460Z,1.67
2022-12-25T18:34:02.318Z,1.65
2022-12-25T18:36:30.869Z,1.73
2022-12-25T18:38:58.792Z,1.73
2022-12-25T18:41:28.483Z,1.78
2022-12-25T18:43:57.298Z,1.79
2022-12-25T18:46:26.606Z,2.04
2022-12-25T18:48:57.814Z,1.92
2022-12-25T18:51:31.288Z,1.89
2022-12-25T18:54:04.775Z,1.92
2022-12-25T18:56:32.961Z,1.98
2022-12-25T18:59:01.412Z,1.86
2022-12-25T19:01:29.529Z,1.76
2022-12-25T19:04:04.505Z,1.82
2022-12-25T19:06:33.718Z,1.98
2022-12-25T19:09:09.241Z,1.87
2022-12-25T19:11:46.555Z,1.93
2022-12-25T19:14:15.451Z,1.75
2022-12-25T19:16:43.113Z,1.99
2022-12-25T19:19:13.038Z,2.04
2022-12-25T19:21:43.652Z,1.73
2022-12-25T19:24:12.527Z,1.97
2022-12-25T19:26:40.631Z,1.90
2022-12-25T19:29:08.770Z,1.92
2022-12-25T19:31:38.317Z,1.98
2022-12-25T19:34:06.864Z,2.00
2022-12-25T19:36:34.314Z,1.97
2022-12-25T19:39:02.282Z,1.97
2022-12-25T19:41:30.072Z,1.94
2022-12-25T19:43:58.828Z,1.94
2022-12-25T19:46:28.912Z,1.96
2022-12-25T19:48:59.310Z,1.97
2022-12-25T19:51:29.293Z,2.00
2022-12-25T19:53:58.373Z,2.01
2022-12-25T19:56:28.033Z,2.07
2022-12-25T19:58:57.520Z,2.04
2022-12-25T20:01:28.100Z,2.04
2022-12-25T20:03:57.554Z,2.04
2022-12-25T20:06:29.030Z,1.95
2022-12-25T20:09:04.765Z,2.20
2022-12-25T20:11:34.324Z,2.04
2022-12-25T20:14:02.193Z,2.03
2022-12-25T20:16:30.038Z,1.99
2022-12-25T20:18:58.948Z,2.12
2022-12-25T20:21:27.671Z,2.04
2022-12-25T20:23:56.256Z,2.16
2022-12-25T20:26:30.261Z,2.05
2022-12-25T20:29:00.489Z,2.06
2022-12-25T20:31:31.277Z,2.14
2022-12-25T20:34:05.645Z,2.09
2022-12-25T20:36:37.163Z,2.00
2022-12-25T20:39:10.389Z,2.08
2022-12-25T20:41:39.077Z,2.22
2022-12-25T20:44:10.440Z,2.20
2022-12-25T20:46:38.625Z,2.24
2022-12-25T20:49:07.293Z,2.17
2022-12-25T20:51:35.256Z,2.24
2022-12-25T20:54:08.349Z,2.29
2022-12-25T20:56:38.015Z,2.29
2022-12-25T20:59:06.158Z,2.20
2022-12-25T21:01:34.029Z,2.32
2022-12-25T21:04:02.417Z,2.34
2022-12-25T21:06:30.149Z,2.22
2022-12-25T21:08:58.925Z,2.31
2022-12-25T21:11:27.477Z,2.31
2022-12-25T21:13:55.605Z,2.29
2022-12-25T21:16:23.817Z,2.27
2022-12-25T21:18:53.759Z,2.30
2022-12-25T21:21:22.627Z,2.36
2022-12-25T21:23:51.405Z,2.23
2022-12-25T21:26:22.315Z,2.27
2022-12-25T21:28:53.741Z,2.37
2022-12-25T21:31:21.528Z,2.30
2022-12-25T21:33:54.304Z,2.35
2022-12-25T21:36:27.521Z,2.28
2022-12-25T21:39:02.580Z,2.27
2022-12-25T21:41:32.001Z,2.25
2022-12-25T21:44:00.510Z,2.30
2022-12-25T21:46:28.712Z,2.22
2022-12-25T21:48:58.251Z,2.38
2022-12-25T21:51:52.521Z,2.39
2022-12-25T21:54:22.716Z,2.39
2022-12-25T21:56:51.151Z,2.43
2022-12-25T21:59:21.419Z,2.48
2022-12-25T22:01:50.183Z,2.47
2022-12-25T22:04:22.042Z,2.58
2022-12-25T22:07:09.182Z,2.53
2022-12-25T22:09:37.871Z,2.56
2022-12-25T22:12:30.158Z,2.59
2022-12-25T22:15:06.822Z,2.69
2022-12-25T22:17:58.852Z,2.65
2022-12-25T22:20:38.432Z,2.89
2022-12-25T22:23:05.963Z,2.68
2022-12-25T22:25:34.147Z,2.75
2022-12-25T22:28:01.855Z,2.64
2022-12-25T22:30:29.989Z,2.90
2022-12-25T22:32:57.777Z,2.79
2022-12-25T22:35:25.590Z,2.66
2022-12-25T22:37:54.192Z,2.68
2022-12-25T22:40:22.252Z,2.84
2022-12-25T22:42:49.771Z,2.84
2022-12-25T22:45:17.794Z,2.86
2022-12-25T22:47:45.664Z,2.77
2022-12-25T22:50:17.483Z,2.84
2022-12-25T22:52:45.835Z,2.85
2022-12-25T22:55:18.195Z,2.95
2022-12-25T22:57:45.431Z,2.93
2022-12-25T23:00:14.771Z,2.92
2022-12-25T23:02:42.234Z,2.97
2022-12-25T23:05:10.050Z,2.96
2022-12-25T23:07:37.560Z,3.03
2022-12-25T23:10:06.735Z,2.89
2022-12-25T23:12:52.551Z,3.03
2022-12-25T23:15:20.180Z,2.93
2022-12-25T23:18:06.531Z,2.92
2022-12-25T23:20:54.536Z,2.99
2022-12-25T23:23:40.619Z,3.04
2022-12-25T23:26:08.603Z,3.14
2022-12-25T23:28:59.457Z,3.00
2022-12-25T23:31:36.688Z,3.07
2022-12-25T23:34:06.122Z,3.02
2022-12-25T23:36:34.384Z,3.04
2022-12-25T23:39:08.943Z,2.92
2022-12-25T23:41:42.016Z,2.96
2022-12-25T23:44:11.158Z,2.95
2022-12-25T23:46:39.881Z,2.88
2022-12-25T23:49:08.658Z,3.02
2022-12-25T23:51:37.831Z,3.03
2022-12-25T23:54:06.891Z,3.10
2022-12-25T23:56:35.196Z,2.95
2022-12-25T23:59:04.144Z,3.11
